createdAt,value
2019-04-11T00:00:44.382Z,15.20
2019-04-11T00:03:13.336Z,15.30
2019-04-11T00:05:41.513Z,14.93
2019-04-11T00:08:10.147Z,14.07
2019-04-11T00:10:39.591Z,16.57
2019-04-11T00:13:17.100Z,15.90
2019-04-11T00:15:37.970Z,15.43
2019-04-11T00:18:06.425Z,15.53
2019-04-11T00:20:35.964Z,15.97
2019-04-11T00:23:04.220Z,15.77
2019-04-11T00:25:33.680Z,14.40
2019-04-11T00:28:02.005Z,14.30
2019-04-11T00:30:30.357Z,14.37
2019-04-11T00:33:18.325Z,14.63
2019-04-11T00:35:46.405Z,14.47
2019-04-11T00:38:14.497Z,14.37
2019-04-11T00:40:43.717Z,14.10
2019-04-11T00:43:12.221Z,13.80
2019-04-11T00:45:40.302Z,13.53
2019-04-11T00:48:09.263Z,13.90
2019-04-11T00:50:37.788Z,12.77
2019-04-11T00:53:05.884Z,13.93
2019-04-11T00:55:35.487Z,13.57
2019-04-11T00:58:03.754Z,12.83
2019-04-11T01:00:33.253Z,13.17
2019-04-11T01:03:02.038Z,12.73
2019-04-11T01:05:31.816Z,12.13
2019-04-11T01:08:00.260Z,13.07
2019-04-11T01:10:29.899Z,12.97
2019-04-11T01:12:58.657Z,12.83
2019-04-11T01:15:27.181Z,13.17
2019-04-11T01:17:55.956Z,13.37
2019-04-11T01:20:24.408Z,12.83
2019-04-11T01:22:52.830Z,11.93
2019-04-11T01:25:22.168Z,12.20
2019-04-11T01:27:50.330Z,12.67
2019-04-11T01:30:22.820Z,12.63
2019-04-11T01:32:51.384Z,11.77
2019-04-11T01:35:19.468Z,12.03
2019-04-11T01:37:48.154Z,11.83
2019-04-11T01:40:17.715Z,12.07
2019-04-11T01:42:47.097Z,12.73
2019-04-11T01:45:17.030Z,12.40
2019-04-11T01:47:46.976Z,12.00
2019-04-11T01:50:16.862Z,10.83
2019-04-11T01:52:44.986Z,11.67
2019-04-11T01:55:13.053Z,12.03
2019-04-11T01:57:43.090Z,11.53
2019-04-11T02:00:13.883Z,12.43
2019-04-11T02:02:46.697Z,11.77
2019-04-11T02:05:31.258Z,10.77
2019-04-11T02:08:00.851Z,11.87
2019-04-11T02:10:29.713Z,11.73
2019-04-11T02:12:59.521Z,11.47
2019-04-11T02:15:28.341Z,11.13
2019-04-11T02:17:57.276Z,11.33
2019-04-11T02:20:27.052Z,10.87
2019-04-11T02:23:08.797Z,11.03
2019-04-11T02:25:55.083Z,11.23
2019-04-11T02:28:24.168Z,11.43
2019-04-11T02:30:56.231Z,11.23
2019-04-11T02:33:26.811Z,10.93
2019-04-11T02:35:56.715Z,11.30
2019-04-11T02:38:25.642Z,11.60
2019-04-11T02:40:55.070Z,11.70
2019-04-11T02:43:25.615Z,11.27
2019-04-11T02:46:08.876Z,11.07
2019-04-11T02:48:24.693Z,10.60
2019-04-11T02:50:54.209Z,10.73
2019-04-11T02:53:24.445Z,11.83
2019-04-11T02:55:54.194Z,10.87
2019-04-11T02:58:24.937Z,11.60
2019-04-11T03:00:55.409Z,10.97
2019-04-11T03:03:25.151Z,11.60
2019-04-11T03:05:55.383Z,11.77
2019-04-11T03:08:26.054Z,11.17
2019-04-11T03:10:55.610Z,12.20
2019-04-11T03:13:25.340Z,11.00
2019-04-11T03:16:05.464Z,10.90
2019-04-11T03:18:40.279Z,11.97
2019-04-11T03:20:57.730Z,12.23
2019-04-11T03:23:25.180Z,11.10
2019-04-11T03:25:56.514Z,10.87
2019-04-11T03:28:28.325Z,11.93
2019-04-11T03:31:26.577Z,10.40
2019-04-11T03:34:12.242Z,11.20
2019-04-11T03:38:51.448Z,10.87
2019-04-11T03:41:12.720Z,11.37
2019-04-11T03:43:35.474Z,10.07
2019-04-11T03:46:16.285Z,11.23
2019-04-11T03:48:36.897Z,10.50
2019-04-11T03:50:57.151Z,11.17
2019-04-11T03:53:29.102Z,10.57
2019-04-11T03:55:56.127Z,10.57
2019-04-11T03:58:25.792Z,10.80
2019-04-11T04:00:59.437Z,11.30
2019-04-11T04:03:26.633Z,11.60
2019-04-11T04:05:57.237Z,11.70
2019-04-11T04:08:27.122Z,11.07
2019-04-11T04:11:12.392Z,10.13
2019-04-11T04:13:47.633Z,11.40
2019-04-11T04:16:40.356Z,11.47
2019-04-11T04:19:11.724Z,11.60
2019-04-11T04:21:47.033Z,11.63
2019-04-11T04:24:30.033Z,11.07
2019-04-11T04:27:01.310Z,11.93
2019-04-11T04:29:29.529Z,12.30
2019-04-11T04:31:59.503Z,11.67
2019-04-11T04:34:28.439Z,11.23
2019-04-11T04:36:57.933Z,11.50
2019-04-11T04:39:27.388Z,10.20
2019-04-11T04:42:05.892Z,11.77
2019-04-11T04:44:27.222Z,11.77
2019-04-11T04:47:12.251Z,11.97
2019-04-11T04:49:27.946Z,11.03
2019-04-11T04:51:56.211Z,11.50
2019-04-11T04:54:24.676Z,11.50
2019-04-11T04:56:54.456Z,11.23
2019-04-11T04:59:23.661Z,11.43
2019-04-11T05:01:53.296Z,10.77
2019-04-11T05:04:23.475Z,11.50
2019-04-11T05:06:53.066Z,11.83
2019-04-11T05:09:23.533Z,12.47
2019-04-11T05:11:53.030Z,11.40
2019-04-11T05:14:23.201Z,12.53
2019-04-11T05:16:52.535Z,12.33
2019-04-11T05:19:22.211Z,12.50
2019-04-11T05:21:52.022Z,11.77
2019-04-11T05:24:20.896Z,11.80
2019-04-11T05:26:50.357Z,12.87
2019-04-11T05:29:19.567Z,12.00
2019-04-11T05:31:49.245Z,11.83
2019-04-11T05:34:18.305Z,11.93
2019-04-11T05:36:47.178Z,10.97
2019-04-11T05:39:17.399Z,12.80
2019-04-11T05:41:47.113Z,12.50
2019-04-11T05:44:16.740Z,12.37
2019-04-11T05:46:53.258Z,12.13
2019-04-11T05:49:17.050Z,12.43
2019-04-11T05:51:47.679Z,13.07
2019-04-11T05:54:16.648Z,11.73
2019-04-11T05:56:48.700Z,11.53
2019-04-11T05:59:18.277Z,12.40
2019-04-11T06:01:48.940Z,11.77
2019-04-11T06:04:27.256Z,11.53
2019-04-11T06:07:10.146Z,11.77
2019-04-11T06:09:41.611Z,12.13
2019-04-11T06:12:11.922Z,12.67
2019-04-11T06:14:57.647Z,12.27
2019-04-11T06:17:26.157Z,13.00
2019-04-11T06:20:12.634Z,12.13
2019-04-11T06:22:43.049Z,12.97
2019-04-11T06:25:25.771Z,13.23
2019-04-11T06:27:56.468Z,12.00
2019-04-11T06:30:44.327Z,12.93
2019-04-11T06:38:51.193Z,12.63
2019-04-11T06:41:33.341Z,21.13
2019-04-11T06:44:04.684Z,12.87
2019-04-11T06:46:55.785Z,13.53
2019-04-11T06:49:28.928Z,12.90
2019-04-11T06:52:02.184Z,12.67
2019-04-11T06:54:47.660Z,13.20
2019-04-11T06:57:21.391Z,12.67
2019-04-11T06:59:52.462Z,13.27
2019-04-11T07:02:24.080Z,12.63
2019-04-11T07:04:53.864Z,13.13
2019-04-11T07:07:27.277Z,12.77
2019-04-11T07:09:55.920Z,12.60
2019-04-11T07:12:26.564Z,13.93
2019-04-11T07:15:00.139Z,13.50
2019-04-11T07:17:48.048Z,13.00
2019-04-11T07:20:20.873Z,13.57
2019-04-11T07:23:07.916Z,13.37
2019-04-11T07:25:47.446Z,13.77
2019-04-11T07:28:34.381Z,14.13
2019-04-11T07:31:13.207Z,13.00
2019-04-11T07:33:45.046Z,13.53
2019-04-11T07:36:31.702Z,13.83
2019-04-11T07:39:05.570Z,13.23
2019-04-11T07:41:39.256Z,13.27
2019-04-11T07:44:13.717Z,13.60
2019-04-11T07:47:01.410Z,14.80
2019-04-11T07:49:35.086Z,13.80
2019-04-11T07:54:58.505Z,14.33
2019-04-11T07:57:31.232Z,14.93
2019-04-11T08:00:08.068Z,13.73
2019-04-11T08:02:55.262Z,14.70
2019-04-11T08:05:25.456Z,13.57
2019-04-11T08:08:11.090Z,15.13
2019-04-11T08:10:41.479Z,14.40
2019-04-11T08:13:12.366Z,13.90
2019-04-11T08:15:58.900Z,14.40
2019-04-11T08:18:29.058Z,13.97
2019-04-11T08:21:15.724Z,14.43
2019-04-11T08:23:45.800Z,14.57
2019-04-11T08:26:19.840Z,14.87
2019-04-11T08:28:59.685Z,14.80
2019-04-11T08:31:21.337Z,13.40
2019-04-11T08:33:51.660Z,14.97
2019-04-11T08:36:27.525Z,13.90
2019-04-11T08:38:56.457Z,14.63
2019-04-11T08:41:27.487Z,14.30
2019-04-11T08:43:56.242Z,15.30
2019-04-11T08:46:26.809Z,13.73
2019-04-11T08:49:05.775Z,14.27
2019-04-11T08:51:35.745Z,14.37
2019-04-11T08:54:10.065Z,13.57
2019-04-11T08:56:40.117Z,14.67
2019-04-11T08:59:24.969Z,13.23
2019-04-11T09:01:53.968Z,13.77
2019-04-11T09:04:30.342Z,14.40
2019-04-11T09:06:59.397Z,13.67
2019-04-11T09:09:33.344Z,14.23
2019-04-11T09:12:04.446Z,13.33
2019-04-11T09:14:44.394Z,14.27
2019-04-11T09:17:19.411Z,14.30
2019-04-11T09:19:56.917Z,14.00
2019-04-11T09:22:35.982Z,14.30
2019-04-11T09:25:10.946Z,14.63
2019-04-11T09:27:54.564Z,13.60
2019-04-11T09:30:37.393Z,14.17
2019-04-11T09:33:07.449Z,15.43
2019-04-11T09:35:37.508Z,15.20
2019-04-11T09:38:08.446Z,14.53
2019-04-11T09:40:39.592Z,15.30
2019-04-11T09:43:15.796Z,15.03
2019-04-11T09:46:02.212Z,15.50
2019-04-11T09:48:33.619Z,15.10
2019-04-11T09:51:07.346Z,14.80
2019-04-11T09:53:38.742Z,14.63
2019-04-11T09:56:27.119Z,15.63
2019-04-11T09:58:58.278Z,14.87
2019-04-11T10:01:31.587Z,15.10
2019-04-11T10:04:00.170Z,15.20
2019-04-11T10:06:32.872Z,16.13
2019-04-11T10:09:01.904Z,16.30
2019-04-11T10:11:34.916Z,14.67
2019-04-11T10:14:05.445Z,16.10
2019-04-11T10:16:48.638Z,16.67
2019-04-11T10:19:22.040Z,15.40
2019-04-11T10:21:56.356Z,15.70
2019-04-11T10:24:26.604Z,15.40
2019-04-11T10:26:59.014Z,15.87
2019-04-11T10:29:37.868Z,16.50
2019-04-11T10:32:08.699Z,15.43
2019-04-11T10:34:47.936Z,16.00
2019-04-11T10:37:18.392Z,16.03
2019-04-11T10:39:49.290Z,17.20
2019-04-11T10:42:18.171Z,17.40
2019-04-11T10:45:04.739Z,17.27
2019-04-11T10:47:34.716Z,17.30
2019-04-11T10:50:13.953Z,16.83
2019-04-11T10:52:55.819Z,17.10
2019-04-11T10:55:25.871Z,17.37
2019-04-11T10:58:02.635Z,15.97
2019-04-11T11:00:33.464Z,17.77
2019-04-11T11:03:04.077Z,17.40
2019-04-11T11:05:34.632Z,17.30
2019-04-11T11:08:04.766Z,17.30
2019-04-11T11:10:35.486Z,17.33
2019-04-11T11:13:21.660Z,17.33
2019-04-11T11:16:11.907Z,17.37
2019-04-11T11:19:15.362Z,16.37
2019-04-11T11:21:15.651Z,16.83
2019-04-11T11:24:05.396Z,18.27
2019-04-11T11:26:33.759Z,17.53
2019-04-11T11:29:13.650Z,17.87
2019-04-11T11:31:45.918Z,18.23
2019-04-11T11:34:20.348Z,16.97
2019-04-11T11:36:55.052Z,17.87
2019-04-11T11:39:26.795Z,19.77
2019-04-11T11:41:59.816Z,21.07
2019-04-11T11:44:47.341Z,18.87
2019-04-11T11:47:38.045Z,17.60
2019-04-11T11:50:06.595Z,19.80
2019-04-11T11:52:53.555Z,18.87
2019-04-11T11:55:27.272Z,19.07
2019-04-11T11:58:00.804Z,19.37
2019-04-11T12:00:31.668Z,18.33
2019-04-11T12:03:02.385Z,18.70
2019-04-11T12:05:34.752Z,19.20
2019-04-11T12:08:09.632Z,19.67
2019-04-11T12:10:46.240Z,19.53
2019-04-11T12:13:32.727Z,19.17
2019-04-11T12:16:22.100Z,21.37
2019-04-11T12:18:54.400Z,19.13
2019-04-11T12:21:27.846Z,18.77
2019-04-11T12:24:03.770Z,20.50
2019-04-11T12:26:30.494Z,19.50
2019-04-11T12:29:14.304Z,19.87
2019-04-11T12:31:46.061Z,21.60
2019-04-11T12:34:19.096Z,18.57
2019-04-11T12:36:50.994Z,18.93
2019-04-11T12:39:35.668Z,19.77
2019-04-11T12:42:06.060Z,19.53
2019-04-11T12:44:52.296Z,19.00
2019-04-11T12:47:22.685Z,20.17
2019-04-11T12:49:53.443Z,19.93
2019-04-11T12:52:40.231Z,19.40
2019-04-11T12:55:13.220Z,20.47
2019-04-11T12:57:59.618Z,19.30
2019-04-11T13:00:38.393Z,20.87
2019-04-11T13:03:08.499Z,19.53
2019-04-11T13:05:38.546Z,18.90
2019-04-11T13:08:08.612Z,18.73
2019-04-11T13:10:38.577Z,18.83
2019-04-11T13:13:15.084Z,19.87
2019-04-11T13:15:45.408Z,19.90
2019-04-11T13:18:31.464Z,19.73
2019-04-11T13:21:07.253Z,19.67
2019-04-11T13:23:43.344Z,20.40
2019-04-11T13:26:29.880Z,19.00
2019-04-11T13:29:08.902Z,19.23
2019-04-11T13:31:54.051Z,18.97
2019-04-11T13:34:27.193Z,19.37
2019-04-11T13:37:13.405Z,19.53
2019-04-11T13:39:43.005Z,18.83
2019-04-11T13:42:25.344Z,20.23
2019-04-11T13:44:53.441Z,18.90
2019-04-11T13:47:26.472Z,19.20
2019-04-11T13:49:56.533Z,20.00
2019-04-11T13:52:35.544Z,19.43
2019-04-11T13:55:06.260Z,18.47
2019-04-11T13:57:51.943Z,18.77
2019-04-11T14:00:38.205Z,17.93
2019-04-11T14:03:22.732Z,19.30
2019-04-11T14:05:51.222Z,19.50
2019-04-11T14:08:24.356Z,18.50
2019-04-11T14:11:09.951Z,18.87
2019-04-11T14:13:40.018Z,19.30
2019-04-11T14:16:10.706Z,18.17
2019-04-11T14:18:46.764Z,18.20
2019-04-11T14:21:16.943Z,18.47
2019-04-11T14:23:49.567Z,18.37
2019-04-11T14:26:19.621Z,18.93
2019-04-11T14:28:49.672Z,18.57
2019-04-11T14:31:31.333Z,19.70
2019-04-11T14:34:17.980Z,18.67
2019-04-11T14:36:53.700Z,18.43
2019-04-11T14:39:23.756Z,18.50
2019-04-11T14:41:59.997Z,18.80
2019-04-11T14:44:30.068Z,18.87
2019-04-11T14:47:22.003Z,18.13
2019-04-11T14:49:52.087Z,18.03
2019-04-11T14:52:22.289Z,18.57
2019-04-11T14:54:50.709Z,17.53
2019-04-11T14:57:22.823Z,18.40
2019-04-11T14:59:54.170Z,17.47
2019-04-11T15:02:39.488Z,16.27
2019-04-11T15:05:27.874Z,17.03
2019-04-11T15:07:56.365Z,17.10
2019-04-11T15:10:28.872Z,17.30
2019-04-11T15:12:57.272Z,17.43
2019-04-11T15:15:36.312Z,17.40
2019-04-11T15:18:05.363Z,17.17
2019-04-11T15:20:35.103Z,16.97
2019-04-11T15:23:11.078Z,17.67
2019-04-11T15:25:57.409Z,15.60
2019-04-11T15:28:36.340Z,16.27
2019-04-11T15:31:12.372Z,16.53
2019-04-11T15:33:48.055Z,16.87
2019-04-11T15:36:20.552Z,16.00
2019-04-11T15:39:08.884Z,17.60
2019-04-11T15:41:38.952Z,16.33
2019-04-11T15:44:25.392Z,16.73
2019-04-11T15:46:55.461Z,15.57
2019-04-11T15:49:31.645Z,15.10
2019-04-11T15:52:01.748Z,15.53
2019-04-11T15:54:37.867Z,16.60
2019-04-11T15:57:12.215Z,16.73
2019-04-11T15:59:43.776Z,15.30
2019-04-11T16:02:27.960Z,15.80
2019-04-11T16:05:01.937Z,15.73
2019-04-11T16:07:48.695Z,16.10
2019-04-11T16:10:17.547Z,15.50
2019-04-11T16:12:47.299Z,16.70
2019-04-11T16:15:20.035Z,15.67
2019-04-11T16:17:59.045Z,16.17
2019-04-11T16:20:27.130Z,15.70
2019-04-11T16:23:15.472Z,15.40
2019-04-11T16:25:45.376Z,15.30
2019-04-11T16:28:15.408Z,16.10
2019-04-11T16:30:45.470Z,16.80
2019-04-11T16:33:18.513Z,15.47
2019-04-11T16:35:57.886Z,15.47
2019-04-11T16:38:28.479Z,16.03
2019-04-11T16:41:07.711Z,16.93
2019-04-11T16:43:37.068Z,15.80
2019-04-11T16:46:24.809Z,15.63
2019-04-11T16:48:55.670Z,15.60
2019-04-11T16:51:30.764Z,15.97
2019-04-11T16:53:53.286Z,16.43
2019-04-11T16:56:21.367Z,14.97
2019-04-11T16:58:50.265Z,16.00
2019-04-11T17:01:20.691Z,15.60
2019-04-11T17:03:48.897Z,15.43
2019-04-11T17:06:37.180Z,15.63
2019-04-11T17:09:14.970Z,15.17
2019-04-11T17:11:43.376Z,15.40
2019-04-11T17:14:12.036Z,15.00
2019-04-11T17:16:40.498Z,15.83
2019-04-11T17:19:08.584Z,15.53
2019-04-11T17:21:43.179Z,15.87
2019-04-11T17:24:06.501Z,16.23
2019-04-11T17:26:34.585Z,15.23
2019-04-11T17:29:02.686Z,16.47
2019-04-11T17:31:30.774Z,15.30
2019-04-11T17:34:01.452Z,15.90
2019-04-11T17:36:30.716Z,15.80
2019-04-11T17:38:58.813Z,15.50
2019-04-11T17:41:26.888Z,16.00
2019-04-11T17:43:54.998Z,14.90
2019-04-11T17:46:42.412Z,16.50
2019-04-11T17:49:10.849Z,15.60
2019-04-11T17:51:38.935Z,15.63
2019-04-11T17:54:07.049Z,14.67
2019-04-11T17:56:35.145Z,15.83
2019-04-11T17:59:03.687Z,15.03
2019-04-11T18:01:33.479Z,15.57
2019-04-11T18:04:01.793Z,15.70
2019-04-11T18:06:29.879Z,15.87
2019-04-11T18:08:57.986Z,15.07
2019-04-11T18:11:26.663Z,15.50
2019-04-11T18:13:55.169Z,14.67
2019-04-11T18:16:23.264Z,15.13
2019-04-11T18:18:51.690Z,13.93
2019-04-11T18:21:19.769Z,16.00
2019-04-11T18:24:12.652Z,14.90
2019-04-11T18:26:41.084Z,14.83
2019-04-11T18:29:09.520Z,15.83
2019-04-11T18:31:38.069Z,15.30
2019-04-11T18:34:06.208Z,14.37
2019-04-11T18:36:34.288Z,16.23
2019-04-11T18:39:05.834Z,15.33
2019-04-11T18:41:32.212Z,15.33
2019-04-11T18:44:00.293Z,17.43
2019-04-11T18:46:28.407Z,15.33
2019-04-11T18:48:56.816Z,14.47
2019-04-11T18:51:24.922Z,16.17
2019-04-11T18:53:53.021Z,15.03
2019-04-11T18:56:21.123Z,15.87
2019-04-11T18:58:49.551Z,14.40
2019-04-11T19:01:18.309Z,13.93
2019-04-11T19:03:46.391Z,15.53
2019-04-11T19:06:14.831Z,14.00
2019-04-11T19:08:43.975Z,14.80
2019-04-11T19:11:15.399Z,15.40
2019-04-11T19:13:42.385Z,16.43
2019-04-11T19:16:10.483Z,15.77
2019-04-11T19:18:38.897Z,13.63
2019-04-11T19:21:07.070Z,15.07
2019-04-11T19:23:36.667Z,14.87
2019-04-11T19:26:05.316Z,14.50
2019-04-11T19:28:33.472Z,14.53
2019-04-11T19:31:01.597Z,14.87
2019-04-11T19:33:29.697Z,15.40
2019-04-11T19:35:57.801Z,15.17
2019-04-11T19:38:30.197Z,14.50
2019-04-11T19:40:58.285Z,15.23
2019-04-11T19:43:26.722Z,14.47
2019-04-11T19:45:54.820Z,14.87
2019-04-11T19:48:25.086Z,14.70
2019-04-11T19:50:53.069Z,14.73
2019-04-11T19:53:40.493Z,16.97
2019-04-11T19:56:13.253Z,13.93
2019-04-11T19:58:41.726Z,15.20
2019-04-11T20:01:10.485Z,14.43
2019-04-11T20:03:38.965Z,14.90
2019-04-11T20:06:07.457Z,14.07
2019-04-11T20:08:35.909Z,14.70
2019-04-11T20:11:04.580Z,14.27
2019-04-11T20:13:33.004Z,14.70
2019-04-11T20:16:01.433Z,14.40
2019-04-11T20:18:29.862Z,14.13
2019-04-11T20:20:58.285Z,13.20
2019-04-11T20:23:26.732Z,13.43
2019-04-11T20:25:55.220Z,13.17
2019-04-11T20:28:23.660Z,13.60
2019-04-11T20:30:52.131Z,12.80
2019-04-11T20:33:27.124Z,12.43
2019-04-11T20:35:51.005Z,14.03
2019-04-11T20:38:19.412Z,14.27
2019-04-11T20:40:52.130Z,14.03
2019-04-11T20:43:18.305Z,14.20
2019-04-11T20:45:46.729Z,13.30
2019-04-11T20:48:15.162Z,14.67
2019-04-11T20:50:43.609Z,14.97
2019-04-11T20:53:13.067Z,14.20
2019-04-11T20:55:41.863Z,14.77
2019-04-11T20:58:11.011Z,14.57
2019-04-11T21:00:49.498Z,14.63
2019-04-11T21:03:10.246Z,13.77
2019-04-11T21:05:38.669Z,13.83
2019-04-11T21:08:07.085Z,12.97
2019-04-11T21:10:35.508Z,12.80
2019-04-11T21:13:06.876Z,13.10
2019-04-11T21:15:34.088Z,12.50
2019-04-11T21:18:02.500Z,13.23
2019-04-11T21:20:30.993Z,12.90
2019-04-11T21:22:59.419Z,14.00
2019-04-11T21:25:28.586Z,13.03
2019-04-11T21:27:59.139Z,12.47
2019-04-11T21:30:27.938Z,12.80
2019-04-11T21:32:58.008Z,13.83
2019-04-11T21:35:26.417Z,13.47
2019-04-11T21:37:54.844Z,13.30
2019-04-11T21:40:23.264Z,13.57
2019-04-11T21:42:51.713Z,12.50
2019-04-11T21:45:20.159Z,12.83
2019-04-11T21:47:48.657Z,12.60
2019-04-11T21:50:17.086Z,12.17
2019-04-11T21:52:45.585Z,12.70
2019-04-11T21:55:16.075Z,12.67
2019-04-11T21:57:48.362Z,12.93
2019-04-11T22:00:40.229Z,12.47
2019-04-11T22:03:09.388Z,12.73
2019-04-11T22:05:38.148Z,12.53
2019-04-11T22:08:06.584Z,13.33
2019-04-11T22:10:35.374Z,13.40
2019-04-11T22:13:03.883Z,13.03
2019-04-11T22:15:32.377Z,13.63
2019-04-11T22:18:00.817Z,13.33
2019-04-11T22:20:29.230Z,13.40
2019-04-11T22:22:57.656Z,12.13
2019-04-11T22:25:26.084Z,11.77
2019-04-11T22:27:54.552Z,12.43
2019-04-11T22:30:25.439Z,13.47
2019-04-11T22:32:58.488Z,13.77
2019-04-11T22:35:29.031Z,12.90
2019-04-11T22:37:59.655Z,12.50
2019-04-11T22:40:47.123Z,12.60
2019-04-11T22:43:24.119Z,12.60
2019-04-11T22:45:45.690Z,12.10
2019-04-11T22:48:14.112Z,12.07
2019-04-11T22:50:42.561Z,12.07
2019-04-11T22:53:13.057Z,12.70
2019-04-11T22:55:41.832Z,13.20
2019-04-11T22:58:13.970Z,13.13
2019-04-11T23:00:40.511Z,13.57
2019-04-11T23:03:16.709Z,12.97
2019-04-11T23:05:46.518Z,14.33
2019-04-11T23:08:14.105Z,12.87
2019-04-11T23:10:46.551Z,12.37
2019-04-11T23:13:15.475Z,13.17
2019-04-11T23:15:43.543Z,13.23
2019-04-11T23:18:14.041Z,13.83
2019-04-11T23:20:44.196Z,12.47
2019-04-11T23:23:13.991Z,13.27
2019-04-11T23:25:42.484Z,13.70
2019-04-11T23:28:10.918Z,13.53
2019-04-11T23:30:39.689Z,14.10
2019-04-11T23:33:08.465Z,13.50
2019-04-11T23:35:37.184Z,14.30
2019-04-11T23:38:05.607Z,13.83
2019-04-11T23:40:34.034Z,13.80
2019-04-11T23:43:02.451Z,13.43
2019-04-11T23:45:31.747Z,14.47
2019-04-11T23:48:00.182Z,13.77
2019-04-11T23:50:28.603Z,13.77
2019-04-11T23:52:57.991Z,12.73
2019-04-11T23:55:30.808Z,14.07
2019-04-11T23:58:01.160Z,13.80
